CLG weather

CLOSED Coalinga Airport
California, United States

Public forecast

Using degrees Fahrenheit for public forecast. Weather courtesy of forecast.io.

METAR (pilot weather report)

Closest report is Lemoore Naval Air Station (Reeves Field) Airport, 22.4 nm (41.4 km) ENE. Retrieved 2019/09/23 08:56 UTC (1 hour ago):

KNLC 230856Z AUTO 31005KT 10SM CLR 17/05 A2987 RMK AO2 SLP113 T01670050 55001

TAF (pilot weather forecast)

Forecast is more than 12 hours old.

Closest forecast is Lemoore Naval Air Station (Reeves Field) Airport, 22.4 nm (41.4 km) ENE. Retrieved 2016/08/04 23:21 UTC (3 years ago):

TAF KNLC 032300Z 0323/0423 35010KT 9999 FEW180 QNH2980INS TEMPO 0323/0405 03008KT FM040500 30005KT 9999 SKC QNH2986INS TX19/0413Z TN39/0423Z FS30067